Time;durP1;ratioP1;P1;durP2;ratioP2;P2;SDS_P1;SDS_P2;PMS_P1;PMS_P2;Temp;Humidity;BMP_temperature;BMP_pressure;BME280_temperature;BME280_humidity;BME280_pressure;Samples;Min_cycle;Max_cycle;Signal;HPM_P1;HPM_P2
2023/01/23 00:02:17;;;;;;;12.38;5.25;;;3.60;99.90;;;;;;5052335;28;20491;-72
2023/01/23 00:04:43;;;;;;;8.65;4.20;;;3.70;99.90;;;;;;5053334;28;20029;-72
2023/01/23 00:07:08;;;;;;;11.32;5.45;;;3.60;99.90;;;;;;5052370;28;20021;-71
2023/01/23 00:09:34;;;;;;;9.70;4.60;;;3.70;99.90;;;;;;5053608;28;20024;-71
2023/01/23 00:12:00;;;;;;;9.77;4.45;;;3.70;99.90;;;;;;5052279;28;20055;-71
2023/01/23 00:14:25;;;;;;;10.98;5.03;;;3.60;99.90;;;;;;5052546;28;20021;-71
2023/01/23 00:16:51;;;;;;;10.77;4.75;;;3.60;99.90;;;;;;5053245;28;20021;-72
2023/01/23 00:19:16;;;;;;;9.38;4.72;;;3.70;99.90;;;;;;5052403;28;20388;-72
2023/01/23 00:21:42;;;;;;;12.15;4.90;;;3.60;99.90;;;;;;5052920;28;20025;-71
2023/01/23 00:24:10;;;;;;;11.45;5.60;;;3.70;99.90;;;;;;5052431;28;20064;-72
2023/01/23 00:26:36;;;;;;;12.32;5.43;;;3.60;99.90;;;;;;5052435;28;20045;-72
2023/01/23 00:29:03;;;;;;;11.27;5.75;;;3.60;99.90;;;;;;5052476;28;20025;-72
2023/01/23 00:31:32;;;;;;;12.20;5.28;;;3.60;99.90;;;;;;5051846;28;20032;-72
2023/01/23 00:34:00;;;;;;;15.73;5.55;;;3.70;99.90;;;;;;5051963;28;20025;-72
2023/01/23 00:36:35;;;;;;;14.75;5.90;;;3.70;99.90;;;;;;5052211;28;20021;-72
2023/01/23 00:39:02;;;;;;;10.23;5.30;;;3.70;99.90;;;;;;5052775;28;20032;-72
2023/01/23 00:41:27;;;;;;;11.90;5.57;;;3.70;99.90;;;;;;5053132;28;20036;-72
2023/01/23 00:43:53;;;;;;;13.63;5.30;;;3.50;99.90;;;;;;5053293;28;20025;-72
2023/01/23 00:46:19;;;;;;;14.23;6.22;;;3.60;99.90;;;;;;5053169;28;20025;-72
2023/01/23 00:48:45;;;;;;;12.80;5.60;;;3.50;99.90;;;;;;5053156;28;20152;-72
2023/01/23 00:51:11;;;;;;;13.05;5.43;;;3.60;99.90;;;;;;5053050;28;20112;-72
2023/01/23 00:53:36;;;;;;;10.88;5.63;;;3.60;99.90;;;;;;5053162;28;20021;-72
2023/01/23 00:56:02;;;;;;;10.30;5.35;;;3.60;99.90;;;;;;5051884;28;20093;-71
2023/01/23 00:58:28;;;;;;;12.05;5.95;;;3.50;99.90;;;;;;5052565;28;20028;-72
2023/01/23 01:00:53;;;;;;;12.00;5.57;;;3.60;99.90;;;;;;5052220;28;20025;-72
2023/01/23 01:03:19;;;;;;;13.77;5.85;;;3.60;99.90;;;;;;5055958;28;20380;-72
2023/01/23 01:05:45;;;;;;;16.08;5.68;;;3.70;99.90;;;;;;5055696;28;20027;-72
2023/01/23 01:08:11;;;;;;;11.63;5.35;;;3.60;99.90;;;;;;5055461;28;20021;-72
2023/01/23 01:10:39;;;;;;;15.05;5.10;;;3.60;99.90;;;;;;5056618;28;20075;-72
2023/01/23 01:13:05;;;;;;;9.90;4.22;;;3.60;99.90;;;;;;5057100;28;20029;-72
2023/01/23 01:15:30;;;;;;;11.43;5.55;;;3.60;99.90;;;;;;5057084;28;20028;-72
2023/01/23 01:17:58;;;;;;;10.52;5.03;;;3.50;99.90;;;;;;5055416;28;20021;-72
2023/01/23 01:20:25;;;;;;;12.93;5.28;;;3.40;99.90;;;;;;5055464;28;20116;-72
2023/01/23 01:22:52;;;;;;;10.10;5.22;;;3.50;99.90;;;;;;5055285;28;20021;-72
2023/01/23 01:25:18;;;;;;;11.02;5.25;;;3.60;99.90;;;;;;5056576;28;20036;-72
2023/01/23 01:27:44;;;;;;;9.75;5.32;;;3.60;99.90;;;;;;5055332;28;20029;-72
2023/01/23 01:30:11;;;;;;;11.40;4.90;;;3.60;99.90;;;;;;5055152;28;20059;-72
2023/01/23 01:32:39;;;;;;;11.25;4.88;;;3.70;99.90;;;;;;5056281;28;20025;-72
2023/01/23 01:35:05;;;;;;;12.35;5.72;;;3.70;99.90;;;;;;5054962;28;20051;-72
2023/01/23 01:37:36;;;;;;;10.68;5.15;;;3.70;99.90;;;;;;5056912;28;20476;-72
2023/01/23 01:40:03;;;;;;;12.02;4.60;;;3.70;99.90;;;;;;5056472;28;20013;-72
2023/01/23 01:42:28;;;;;;;11.05;5.20;;;3.70;99.90;;;;;;5054838;28;20025;-72
2023/01/23 01:44:57;;;;;;;14.35;5.45;;;3.60;99.90;;;;;;5055510;28;20052;-72
2023/01/23 01:47:22;;;;;;;10.30;5.35;;;3.60;99.90;;;;;;5055180;28;20025;-72
2023/01/23 01:49:51;;;;;;;10.10;5.15;;;3.50;99.90;;;;;;5056226;28;20029;-72
2023/01/23 01:52:18;;;;;;;10.98;5.20;;;3.40;99.90;;;;;;5055825;28;20025;-72
2023/01/23 01:54:55;;;;;;;12.65;5.78;;;3.40;99.90;;;;;;5056418;28;20017;-72
2023/01/23 01:57:25;;;;;;;14.70;5.82;;;3.50;99.90;;;;;;5054673;28;20021;-72
2023/01/23 01:59:59;;;;;;;13.68;5.88;;;3.40;99.90;;;;;;5055648;28;20047;-72
2023/01/23 02:02:53;;;;;;;15.15;5.72;;;3.40;99.90;;;;;;5060900;22;20579;-68
2023/01/23 02:05:29;;;;;;;15.80;6.00;;;3.50;99.90;;;;;;5033217;28;20025;-68
2023/01/23 02:08:13;;;;;;;10.20;5.20;;;3.60;99.90;;;;;;5035061;28;20021;-68
2023/01/23 02:10:39;;;;;;;11.20;4.63;;;3.50;99.90;;;;;;5035514;28;20028;-68
2023/01/23 02:13:31;;;;;;;9.88;5.32;;;3.60;99.90;;;;;;5033924;28;20025;-68
2023/01/23 02:16:00;;;;;;;12.57;5.43;;;3.50;99.90;;;;;;5034256;28;20112;-68
2023/01/23 02:18:28;;;;;;;10.48;5.22;;;3.50;99.90;;;;;;5034110;28;20022;-68
2023/01/23 02:20:56;;;;;;;11.98;4.93;;;3.20;99.90;;;;;;5034268;28;20080;-68
2023/01/23 02:23:42;;;;;;;10.38;5.00;;;3.20;99.90;;;;;;5033973;28;20476;-68
2023/01/23 02:26:23;;;;;;;10.07;4.90;;;3.20;99.90;;;;;;5033996;28;20033;-68
2023/01/23 02:28:52;;;;;;;12.07;5.60;;;3.20;99.90;;;;;;5035176;28;20022;-68
2023/01/23 02:31:17;;;;;;;10.32;4.32;;;3.00;99.90;;;;;;5033642;28;20121;-70
2023/01/23 02:33:49;;;;;;;10.75;5.22;;;3.10;99.90;;;;;;5035145;28;20053;-70
2023/01/23 02:36:17;;;;;;;10.57;5.28;;;3.20;99.90;;;;;;5035092;28;20017;-68
2023/01/23 02:38:56;;;;;;;11.15;5.20;;;3.40;99.90;;;;;;5034934;28;20049;-68
2023/01/23 02:41:29;;;;;;;13.15;5.82;;;3.20;99.90;;;;;;5034843;28;20084;-68
2023/01/23 02:43:58;;;;;;;16.80;5.90;;;3.30;99.90;;;;;;5033996;28;20089;-68
2023/01/23 02:46:24;;;;;;;9.73;4.55;;;3.30;99.90;;;;;;5033529;28;20030;-68
2023/01/23 02:48:50;;;;;;;10.55;5.57;;;3.30;99.90;;;;;;5034120;28;20037;-68
2023/01/23 02:51:16;;;;;;;12.00;5.90;;;3.40;99.90;;;;;;5033703;28;20059;-68
2023/01/23 02:53:42;;;;;;;11.73;5.20;;;3.40;99.90;;;;;;5033447;28;20017;-68
2023/01/23 02:56:08;;;;;;;10.68;5.03;;;3.40;99.90;;;;;;5034704;28;20028;-68
2023/01/23 03:01:18;;;;;;;12.57;5.90;;;3.60;99.90;;;;;;5034638;28;20503;-68
2023/01/23 03:03:43;;;;;;;10.00;4.45;;;3.50;99.90;;;;;;5034490;28;20029;-71
2023/01/23 03:06:10;;;;;;;8.85;4.55;;;3.50;99.90;;;;;;5033407;28;20025;-71
2023/01/23 03:08:46;;;;;;;11.32;5.57;;;3.50;99.90;;;;;;5033517;28;20022;-71
2023/01/23 03:11:12;;;;;;;11.93;5.63;;;3.60;99.90;;;;;;5032919;28;20510;-70
2023/01/23 03:13:37;;;;;;;10.40;5.20;;;3.50;99.90;;;;;;5033234;28;20021;-71
2023/01/23 03:16:03;;;;;;;13.07;5.95;;;3.40;99.90;;;;;;5034349;28;20029;-71
2023/01/23 03:18:29;;;;;;;9.57;4.72;;;3.50;99.90;;;;;;5033748;28;20021;-71
2023/01/23 03:21:00;;;;;;;9.85;5.20;;;3.50;99.90;;;;;;5033797;28;20021;-71
2023/01/23 03:23:25;;;;;;;8.52;5.32;;;3.60;99.90;;;;;;5033986;28;20025;-71
2023/01/23 03:25:57;;;;;;;10.75;5.13;;;3.70;99.90;;;;;;5032644;28;20064;-71
2023/01/23 03:31:11;;;;;;;10.00;4.97;;;3.70;99.90;;;;;;5034422;28;20120;-71
2023/01/23 03:33:38;;;;;;;12.65;5.65;;;3.70;99.90;;;;;;5033859;28;20028;-71
2023/01/23 03:36:04;;;;;;;9.52;5.00;;;3.60;99.90;;;;;;5032964;28;20052;-71
2023/01/23 03:38:30;;;;;;;10.13;4.35;;;3.60;99.90;;;;;;5033310;28;20059;-71
2023/01/23 03:43:40;;;;;;;9.82;4.85;;;3.60;99.90;;;;;;5034039;28;20040;-71
2023/01/23 03:46:06;;;;;;;11.10;5.47;;;3.60;99.90;;;;;;5032466;28;20022;-71
2023/01/23 03:48:31;;;;;;;9.07;4.60;;;3.60;99.90;;;;;;5032816;28;20052;-68
2023/01/23 03:50:57;;;;;;;9.77;4.82;;;3.60;99.90;;;;;;5033590;28;20381;-70
2023/01/23 03:53:23;;;;;;;10.68;4.90;;;3.60;99.90;;;;;;5033627;28;20025;-70
2023/01/23 03:55:49;;;;;;;7.75;4.18;;;3.70;99.90;;;;;;5033102;28;20022;-71
2023/01/23 03:58:15;;;;;;;10.55;4.97;;;3.70;99.90;;;;;;5043199;28;20059;-71
2023/01/23 04:00:40;;;;;;;9.32;4.35;;;3.70;99.90;;;;;;5052093;28;20094;-71
2023/01/23 04:03:06;;;;;;;7.50;4.57;;;3.70;99.90;;;;;;5052268;28;20104;-71
2023/01/23 04:05:32;;;;;;;9.10;4.28;;;3.80;99.90;;;;;;5052043;28;20032;-71
2023/01/23 04:07:58;;;;;;;8.43;4.32;;;3.70;99.90;;;;;;5052170;28;20021;-70
2023/01/23 04:10:23;;;;;;;9.02;4.68;;;3.70;99.90;;;;;;5051896;28;20025;-70
2023/01/23 04:12:49;;;;;;;9.77;4.72;;;3.70;99.90;;;;;;5052237;28;20104;-71
2023/01/23 04:15:14;;;;;;;9.85;4.93;;;3.80;99.90;;;;;;5051929;28;20120;-71
2023/01/23 04:17:40;;;;;;;8.32;4.03;;;3.80;99.90;;;;;;5051938;28;20105;-71
2023/01/23 04:20:06;;;;;;;8.57;4.50;;;3.80;99.90;;;;;;5053211;28;20025;-71
2023/01/23 04:22:32;;;;;;;8.30;4.22;;;3.80;99.90;;;;;;5051722;28;20032;-71
2023/01/23 04:24:57;;;;;;;8.65;4.20;;;3.70;99.90;;;;;;5051877;28;20029;-71
2023/01/23 04:27:23;;;;;;;8.55;4.22;;;3.70;99.90;;;;;;5051844;28;20028;-71
2023/01/23 04:29:49;;;;;;;7.82;3.92;;;3.80;99.90;;;;;;5051661;28;20074;-71
2023/01/23 04:32:14;;;;;;;8.32;3.95;;;3.70;99.90;;;;;;5051915;28;20028;-71
2023/01/23 04:34:40;;;;;;;8.75;4.55;;;3.70;99.90;;;;;;5053021;28;20039;-71
2023/01/23 04:37:05;;;;;;;9.55;4.65;;;3.80;99.90;;;;;;5054335;28;20021;-71
2023/01/23 04:39:32;;;;;;;6.28;3.95;;;3.90;99.90;;;;;;5056729;28;20025;-71
2023/01/23 04:41:57;;;;;;;8.40;4.63;;;3.80;99.90;;;;;;5056145;28;20020;-71
2023/01/23 04:44:23;;;;;;;7.10;4.20;;;3.90;99.90;;;;;;5055711;28;20032;-71
2023/01/23 04:46:53;;;;;;;8.70;4.28;;;3.80;99.90;;;;;;5056926;28;20023;-71
2023/01/23 04:49:20;;;;;;;7.15;3.83;;;3.80;99.90;;;;;;5056567;28;20147;-71
2023/01/23 04:51:47;;;;;;;8.75;4.75;;;3.70;99.90;;;;;;5055524;28;20025;-68
2023/01/23 04:54:13;;;;;;;6.78;4.35;;;3.70;99.90;;;;;;5055568;28;20021;-68
2023/01/23 04:56:39;;;;;;;8.93;4.75;;;3.80;99.90;;;;;;5055616;28;20021;-68
2023/01/23 04:59:05;;;;;;;10.98;4.57;;;3.80;99.90;;;;;;5055493;28;20162;-68
2023/01/23 05:01:31;;;;;;;10.50;5.07;;;3.70;99.90;;;;;;5055275;28;20048;-68
2023/01/23 05:03:57;;;;;;;7.97;4.30;;;3.60;99.90;;;;;;5055402;28;20039;-68
2023/01/23 05:06:22;;;;;;;8.82;4.78;;;3.40;99.90;;;;;;5055375;28;20120;-68
2023/01/23 05:08:48;;;;;;;8.38;4.10;;;3.30;99.90;;;;;;5055719;28;20067;-68
2023/01/23 05:11:14;;;;;;;8.15;4.28;;;3.40;99.90;;;;;;5055278;28;20525;-68
2023/01/23 05:13:39;;;;;;;6.68;3.97;;;3.30;99.90;;;;;;5056145;28;20052;-71
2023/01/23 05:16:05;;;;;;;9.85;5.13;;;3.40;99.90;;;;;;5055455;28;20068;-71
2023/01/23 05:18:31;;;;;;;9.70;4.47;;;3.50;99.90;;;;;;5056630;28;20021;-68
2023/01/23 05:20:56;;;;;;;7.32;3.47;;;3.50;99.90;;;;;;5055248;28;20028;-68
2023/01/23 05:23:22;;;;;;;9.63;4.57;;;3.40;99.90;;;;;;5055007;28;20053;-68
2023/01/23 05:25:47;;;;;;;10.55;4.97;;;3.40;99.90;;;;;;5056446;28;20027;-68
2023/01/23 05:28:13;;;;;;;7.22;4.13;;;3.40;99.90;;;;;;5055820;28;20025;-68
2023/01/23 05:30:38;;;;;;;8.68;4.60;;;3.60;99.90;;;;;;5056143;28;20017;-68
2023/01/23 05:33:04;;;;;;;9.18;5.00;;;3.40;99.90;;;;;;5055078;28;20021;-68
2023/01/23 05:35:29;;;;;;;10.98;4.57;;;3.40;99.90;;;;;;5054806;28;20013;-68
2023/01/23 05:37:55;;;;;;;8.88;4.57;;;3.60;99.90;;;;;;5055507;28;20025;-68
2023/01/23 05:40:22;;;;;;;8.48;4.32;;;3.60;99.90;;;;;;5055881;28;20523;-68
2023/01/23 05:42:47;;;;;;;6.13;3.90;;;3.50;99.90;;;;;;5055521;28;20029;-69
2023/01/23 05:45:13;;;;;;;8.80;4.32;;;3.60;99.90;;;;;;5055879;28;20029;-68
2023/01/23 05:47:39;;;;;;;7.70;4.65;;;3.60;99.90;;;;;;5054394;28;20110;-71
2023/01/23 05:50:06;;;;;;;9.55;4.40;;;3.70;99.90;;;;;;5055777;28;20025;-71
2023/01/23 05:52:33;;;;;;;7.25;4.40;;;3.60;99.90;;;;;;5054367;28;20506;-71
2023/01/23 05:54:59;;;;;;;7.68;4.85;;;3.70;99.90;;;;;;5054812;28;20028;-71
2023/01/23 05:57:24;;;;;;;11.27;4.70;;;3.70;99.90;;;;;;5054449;28;20025;-71
2023/01/23 05:59:50;;;;;;;8.52;4.85;;;3.60;99.90;;;;;;5054418;28;20029;-71
2023/01/23 06:02:16;;;;;;;8.75;5.38;;;3.60;99.90;;;;;;5054387;28;20033;-71
2023/01/23 06:04:41;;;;;;;8.00;4.70;;;3.50;99.90;;;;;;5054513;28;20108;-71
2023/01/23 06:07:12;;;;;;;7.25;4.30;;;3.50;99.90;;;;;;5054214;28;20059;-71
2023/01/23 06:09:38;;;;;;;8.45;4.60;;;3.40;99.90;;;;;;5055126;28;20029;-68
2023/01/23 06:12:04;;;;;;;9.48;4.60;;;3.30;99.90;;;;;;5055219;28;20029;-71
2023/01/23 06:14:29;;;;;;;8.52;4.78;;;3.30;99.90;;;;;;5054419;28;20388;-71
2023/01/23 06:16:55;;;;;;;7.63;4.63;;;3.40;99.90;;;;;;5054094;28;20082;-71
2023/01/23 06:19:20;;;;;;;7.93;4.05;;;3.50;99.90;;;;;;5054786;28;20025;-71
2023/01/23 06:21:46;;;;;;;7.55;4.38;;;3.60;99.90;;;;;;5053806;28;20116;-71
2023/01/23 06:24:12;;;;;;;8.20;4.45;;;3.60;99.90;;;;;;5053873;28;20021;-71
2023/01/23 06:26:37;;;;;;;8.65;4.88;;;3.50;99.90;;;;;;5053797;28;20024;-71
2023/01/23 06:29:03;;;;;;;10.48;5.10;;;3.60;99.90;;;;;;5054314;28;20025;-68
2023/01/23 06:31:31;;;;;;;11.20;5.47;;;3.70;99.90;;;;;;5053958;28;20032;-68
2023/01/23 06:33:56;;;;;;;12.80;5.00;;;3.70;99.90;;;;;;5053690;28;20025;-68
2023/01/23 06:36:22;;;;;;;10.75;4.97;;;3.70;99.90;;;;;;5053762;28;20017;-68
2023/01/23 06:38:48;;;;;;;9.90;4.85;;;3.70;99.90;;;;;;5054929;28;20017;-68
2023/01/23 06:41:13;;;;;;;8.32;4.45;;;3.80;99.90;;;;;;5053815;28;20060;-68
2023/01/23 06:43:39;;;;;;;8.38;4.65;;;3.80;99.90;;;;;;5053514;28;20052;-68
2023/01/23 06:46:08;;;;;;;9.95;4.53;;;3.80;99.90;;;;;;5053626;28;20112;-71
2023/01/23 06:48:34;;;;;;;10.73;4.68;;;3.80;99.90;;;;;;5053750;28;20024;-71
2023/01/23 06:50:59;;;;;;;9.02;4.88;;;3.80;99.90;;;;;;5054444;28;20025;-71
2023/01/23 06:53:26;;;;;;;9.45;4.28;;;3.90;99.90;;;;;;5053400;28;20033;-71
2023/01/23 06:55:51;;;;;;;6.88;4.43;;;4.00;99.90;;;;;;5053473;28;20083;-71
2023/01/23 06:58:17;;;;;;;10.00;4.70;;;3.80;99.90;;;;;;5054169;28;20021;-70
2023/01/23 07:00:43;;;;;;;9.55;4.78;;;3.90;99.90;;;;;;5053033;28;20120;-71
2023/01/23 07:03:11;;;;;;;13.40;4.38;;;3.90;99.90;;;;;;5054414;28;20032;-71
2023/01/23 07:05:39;;;;;;;9.30;4.60;;;3.90;99.90;;;;;;5053335;28;20029;-71
2023/01/23 07:08:05;;;;;;;8.50;4.15;;;3.80;99.90;;;;;;5053103;28;20017;-71
2023/01/23 07:10:31;;;;;;;8.57;4.65;;;3.90;99.90;;;;;;5052959;28;20060;-71
2023/01/23 07:12:56;;;;;;;7.90;4.43;;;3.90;99.90;;;;;;5052933;28;20076;-71
2023/01/23 07:15:22;;;;;;;7.53;3.92;;;3.90;99.90;;;;;;5052937;28;20017;-68
2023/01/23 07:17:47;;;;;;;8.15;4.70;;;3.70;99.90;;;;;;5054112;28;20029;-68
2023/01/23 07:20:14;;;;;;;7.47;4.47;;;3.70;99.90;;;;;;5052776;28;20028;-68
2023/01/23 07:22:40;;;;;;;9.60;4.30;;;3.70;99.90;;;;;;5054254;28;20025;-68
2023/01/23 07:25:06;;;;;;;10.57;4.38;;;3.70;99.90;;;;;;5052675;28;20029;-68
2023/01/23 07:27:32;;;;;;;7.30;3.88;;;3.60;99.90;;;;;;5053857;28;20484;-68
2023/01/23 07:29:57;;;;;;;8.65;4.72;;;3.60;99.90;;;;;;5053591;28;20040;-68
2023/01/23 07:32:24;;;;;;;7.70;4.40;;;3.70;99.90;;;;;;5053673;28;20051;-68
2023/01/23 07:34:51;;;;;;;9.48;4.22;;;3.50;99.90;;;;;;5052605;28;20017;-68
2023/01/23 07:37:17;;;;;;;7.25;3.88;;;3.30;99.90;;;;;;5052610;28;20017;-68
2023/01/23 07:39:44;;;;;;;8.55;5.25;;;3.40;99.90;;;;;;5052405;28;20028;-68
2023/01/23 07:42:10;;;;;;;7.60;4.20;;;3.30;99.90;;;;;;5053273;28;20372;-68
2023/01/23 07:44:35;;;;;;;8.15;4.40;;;3.30;99.90;;;;;;5052440;28;20021;-68
2023/01/23 07:47:01;;;;;;;10.45;4.68;;;3.40;99.90;;;;;;5052301;28;20123;-68
2023/01/23 07:49:26;;;;;;;9.05;4.60;;;3.40;99.90;;;;;;5052305;28;20120;-68
2023/01/23 07:51:52;;;;;;;6.78;3.97;;;3.40;99.90;;;;;;5052561;28;20021;-68
2023/01/23 07:54:17;;;;;;;7.93;4.45;;;3.30;99.90;;;;;;5054022;28;20060;-68
2023/01/23 07:56:43;;;;;;;7.70;3.85;;;3.30;99.90;;;;;;5053289;28;20017;-68
2023/01/23 07:59:12;;;;;;;8.82;4.32;;;3.40;99.90;;;;;;5053067;28;20024;-70
2023/01/23 08:01:38;;;;;;;8.90;4.25;;;3.50;99.90;;;;;;5052130;28;20029;-71
2023/01/23 08:04:03;;;;;;;10.40;4.70;;;3.20;99.90;;;;;;5052421;28;20029;-71
2023/01/23 08:06:29;;;;;;;8.32;3.88;;;3.20;99.90;;;;;;5053705;28;20025;-71
2023/01/23 08:08:54;;;;;;;7.63;4.53;;;3.10;99.90;;;;;;5052042;28;20021;-71
2023/01/23 08:11:22;;;;;;;11.20;4.47;;;3.10;99.90;;;;;;5050976;28;20129;-71
2023/01/23 08:13:49;;;;;;;10.57;4.90;;;3.10;99.90;;;;;;5051973;28;20018;-68
2023/01/23 08:16:15;;;;;;;7.75;4.28;;;3.20;99.90;;;;;;5051883;28;20025;-68
2023/01/23 08:18:40;;;;;;;9.25;4.28;;;3.20;99.90;;;;;;5051891;28;20036;-68
2023/01/23 08:21:06;;;;;;;8.93;4.97;;;3.30;99.90;;;;;;5052130;28;20112;-68
2023/01/23 08:23:33;;;;;;;8.25;4.32;;;3.20;99.90;;;;;;5053078;28;20044;-68
2023/01/23 08:26:02;;;;;;;9.25;4.22;;;3.00;99.90;;;;;;5051777;28;20025;-68
2023/01/23 08:28:27;;;;;;;11.15;5.30;;;3.00;99.90;;;;;;5052524;28;20021;-68
2023/01/23 08:30:53;;;;;;;8.63;4.22;;;3.00;99.90;;;;;;5053053;28;20048;-68
2023/01/23 08:33:20;;;;;;;9.65;4.60;;;3.10;99.90;;;;;;5052933;28;20060;-68
2023/01/23 08:35:54;;;;;;;9.73;4.38;;;3.10;99.90;;;;;;5051940;28;20028;-68
2023/01/23 08:38:21;;;;;;;10.43;5.30;;;3.10;99.90;;;;;;5052604;28;20029;-68
2023/01/23 08:40:48;;;;;;;10.32;4.60;;;3.10;99.90;;;;;;5051721;28;20108;-68
2023/01/23 08:43:14;;;;;;;10.30;4.93;;;3.10;99.90;;;;;;5052633;28;20024;-71
2023/01/23 08:45:40;;;;;;;8.05;3.95;;;3.00;99.90;;;;;;5052872;28;20052;-71
2023/01/23 08:48:07;;;;;;;9.70;4.68;;;3.00;99.90;;;;;;5051588;28;20025;-71
2023/01/23 08:50:33;;;;;;;8.40;4.30;;;3.00;99.90;;;;;;5052080;28;20032;-71
2023/01/23 08:52:58;;;;;;;12.02;4.97;;;3.10;99.90;;;;;;5052779;28;20025;-73
2023/01/23 08:55:24;;;;;;;10.13;4.57;;;3.20;99.90;;;;;;5051997;28;20100;-73
2023/01/23 08:57:49;;;;;;;9.35;4.40;;;3.30;99.90;;;;;;5052790;28;20021;-74
2023/01/23 09:00:15;;;;;;;9.30;4.72;;;3.40;99.90;;;;;;5051799;28;20067;-73
2023/01/23 09:02:41;;;;;;;12.40;5.63;;;3.40;99.90;;;;;;5051364;28;20036;-73
2023/01/23 09:05:07;;;;;;;8.75;4.82;;;3.40;99.90;;;;;;5051773;28;20029;-72
2023/01/23 09:07:35;;;;;;;9.02;4.90;;;3.40;99.90;;;;;;5052888;28;20025;-72
2023/01/23 09:10:01;;;;;;;11.35;5.53;;;3.40;99.90;;;;;;5052320;28;20021;-71
2023/01/23 09:12:27;;;;;;;12.05;5.28;;;3.40;99.90;;;;;;5051616;28;20025;-72
2023/01/23 09:14:53;;;;;;;8.80;4.43;;;3.50;99.90;;;;;;5051398;28;20021;-72
2023/01/23 09:17:19;;;;;;;10.10;5.32;;;3.60;99.90;;;;;;5052247;28;20022;-72
2023/01/23 09:19:44;;;;;;;7.80;4.43;;;3.40;99.90;;;;;;5051588;28;20490;-71
2023/01/23 09:22:10;;;;;;;9.32;5.03;;;3.40;99.90;;;;;;5053488;28;20037;-72
2023/01/23 09:24:35;;;;;;;10.43;4.95;;;3.40;99.90;;;;;;5055398;28;20046;-72
2023/01/23 09:27:01;;;;;;;8.63;4.40;;;3.50;99.90;;;;;;5056649;28;20090;-71
2023/01/23 09:29:26;;;;;;;9.50;4.53;;;3.20;99.90;;;;;;5056211;28;20235;-71
2023/01/23 09:31:52;;;;;;;10.25;4.80;;;3.10;99.90;;;;;;5055095;28;20028;-72
2023/01/23 09:34:18;;;;;;;9.75;4.55;;;3.20;99.90;;;;;;5056379;28;20028;-72
2023/01/23 09:36:43;;;;;;;8.45;4.72;;;3.20;99.90;;;;;;5055249;28;20028;-72
2023/01/23 09:39:09;;;;;;;11.18;4.50;;;3.20;99.90;;;;;;5055037;28;20104;-73
2023/01/23 09:41:35;;;;;;;10.18;4.72;;;3.20;99.90;;;;;;5055246;28;20039;-72
2023/01/23 09:44:08;;;;;;;7.65;3.92;;;3.20;99.90;;;;;;5055910;28;20194;-72
2023/01/23 09:46:52;;;;;;;8.88;4.13;;;3.20;99.90;;;;;;5054636;28;20045;-72
2023/01/23 09:49:23;;;;;;;10.88;4.75;;;3.20;99.90;;;;;;5054544;28;20025;-72
2023/01/23 09:51:55;;;;;;;9.60;4.05;;;3.20;99.90;;;;;;5055728;28;20033;-72
2023/01/23 09:54:45;;;;;;;9.75;5.05;;;3.20;99.90;;;;;;5054599;28;20056;-72
2023/01/23 09:57:29;;;;;;;10.50;4.47;;;3.40;99.90;;;;;;5055768;28;20191;-73
2023/01/23 10:00:02;;;;;;;9.38;4.40;;;3.50;99.90;;;;;;5055071;28;20033;-71
2023/01/23 10:02:28;;;;;;;9.18;4.30;;;3.50;99.90;;;;;;5054435;28;20037;-71
2023/01/23 10:04:56;;;;;;;10.88;4.88;;;3.50;99.90;;;;;;5054370;28;20021;-71
2023/01/23 10:07:49;;;;;;;7.07;4.07;;;3.50;99.90;;;;;;5054266;28;20135;-71
2023/01/23 10:10:41;;;;;;;10.30;4.55;;;3.50;99.90;;;;;;5054321;28;20048;-71
2023/01/23 10:13:11;;;;;;;;;;;3.50;99.90;;;;;;5054642;28;20029;-71
2023/01/23 10:16:04;;;;;;;9.93;4.75;;;3.60;99.90;;;;;;5054112;28;19912;-71
2023/01/23 10:19:07;;;;;;;9.73;4.63;;;3.60;99.90;;;;;;5055419;28;20120;-71
2023/01/23 10:22:00;;;;;;;9.55;4.20;;;3.50;99.90;;;;;;5054934;28;20027;-71
2023/01/23 10:24:44;;;;;;;9.65;4.25;;;3.50;99.90;;;;;;5054034;28;20033;-71
2023/01/23 10:27:20;;;;;;;11.82;4.90;;;3.50;99.90;;;;;;5055194;28;20028;-71
2023/01/23 10:30:02;;;;;;;10.00;4.75;;;3.50;99.90;;;;;;5055139;28;20044;-71
2023/01/23 10:32:31;;;;;;;12.50;5.18;;;3.50;99.90;;;;;;5055015;28;20037;-71
2023/01/23 10:35:04;;;;;;;11.25;5.55;;;3.60;99.90;;;;;;5052703;28;20049;-71
2023/01/23 10:37:59;;;;;;;11.65;5.40;;;3.70;99.90;;;;;;5053785;28;20081;-71
2023/01/23 10:43:16;;;;;;;11.25;5.07;;;3.60;99.90;;;;;;5055475;28;20052;-71
2023/01/23 10:45:43;;;;;;;9.37;4.93;;;3.60;99.90;;;;;;5053547;28;20029;-71
2023/01/23 10:48:48;;;;;;;12.80;5.63;;;3.80;99.90;;;;;;5053620;28;20021;-71
2023/01/23 10:51:28;;;;;;;12.13;5.25;;;3.70;99.90;;;;;;4996391;28;20021;-71
2023/01/23 10:54:02;;;;;;;10.40;5.35;;;3.70;99.90;;;;;;5012790;28;20478;-71
2023/01/23 10:56:28;;;;;;;11.98;5.32;;;3.80;99.90;;;;;;5012981;28;20041;-71
2023/01/23 10:58:55;;;;;;;9.65;4.80;;;3.90;99.90;;;;;;5012682;28;20089;-71
2023/01/23 11:01:31;;;;;;;10.30;5.32;;;4.00;99.90;;;;;;5012406;28;20125;-70
2023/01/23 11:04:17;;;;;;;11.93;5.13;;;3.80;99.90;;;;;;5012674;28;20113;-71
2023/01/23 11:06:43;;;;;;;11.65;5.63;;;3.80;99.90;;;;;;4996474;28;20085;-71
2023/01/23 11:09:19;;;;;;;8.48;4.45;;;3.80;99.90;;;;;;5012697;28;20026;-71
2023/01/23 11:11:58;;;;;;;11.20;5.55;;;3.90;99.90;;;;;;5012783;28;20030;-71
2023/01/23 11:14:24;;;;;;;9.93;5.20;;;4.00;99.90;;;;;;4996098;28;20018;-71
2023/01/23 11:17:21;;;;;;;10.35;4.55;;;3.90;99.90;;;;;;4996082;28;20025;-71
2023/01/23 11:19:53;;;;;;;9.88;5.47;;;4.10;99.90;;;;;;5004899;28;20038;-71
2023/01/23 11:23:12;;;;;;;9.07;4.22;;;4.30;99.90;;;;;;5039704;28;20037;-71
2023/01/23 11:25:42;;;;;;;12.00;5.00;;;4.10;99.90;;;;;;4996058;28;20040;-71
2023/01/23 11:28:47;;;;;;;9.13;4.70;;;4.20;99.90;;;;;;5012204;28;20060;-71
2023/01/23 11:31:12;;;;;;;9.98;5.63;;;4.20;99.90;;;;;;4918832;29;20024;-71
2023/01/23 11:33:57;;;;;;;11.45;4.82;;;4.30;99.90;;;;;;4934975;29;20059;-71
2023/01/23 11:36:53;;;;;;;9.52;4.68;;;4.20;99.90;;;;;;4934592;29;20072;-71
2023/01/23 11:39:37;;;;;;;9.38;4.97;;;4.10;99.90;;;;;;4918919;29;20031;-71
2023/01/23 11:42:03;;;;;;;12.70;5.00;;;3.90;99.90;;;;;;4918723;29;20072;-71
2023/01/23 11:44:30;;;;;;;10.68;5.03;;;4.00;99.90;;;;;;4934424;29;20030;-71
2023/01/23 11:47:13;;;;;;;11.95;5.30;;;4.10;99.90;;;;;;4934244;29;20064;-71
2023/01/23 11:49:42;;;;;;;12.55;5.60;;;4.20;99.90;;;;;;4935263;29;20057;-71
2023/01/23 11:52:07;;;;;;;10.00;4.60;;;4.40;99.90;;;;;;4918367;29;20033;-71
2023/01/23 11:54:51;;;;;;;9.63;5.35;;;4.30;99.90;;;;;;4934726;29;20068;-71
2023/01/23 11:57:38;;;;;;;11.25;5.15;;;4.40;99.90;;;;;;4934660;29;20061;-71
2023/01/23 12:00:31;;;;;;;13.00;5.28;;;4.60;99.90;;;;;;4928569;28;20027;-71
2023/01/23 12:03:33;;;;;;;8.38;5.22;;;4.60;99.90;;;;;;4992118;28;20522;-71
2023/01/23 12:06:19;;;;;;;13.50;5.75;;;4.50;99.90;;;;;;5044416;28;20112;-71
2023/01/23 12:08:57;;;;;;;19.40;5.35;;;4.50;99.90;;;;;;5052062;28;20032;-71
2023/01/23 12:11:25;;;;;;;9.52;4.78;;;4.90;99.90;;;;;;5052468;28;20032;-72
2023/01/23 12:14:09;;;;;;;8.70;4.63;;;5.30;99.90;;;;;;5052059;28;20021;-72
2023/01/23 12:16:57;;;;;;;9.68;4.95;;;5.40;99.90;;;;;;5052219;28;20071;-71
2023/01/23 12:19:49;;;;;;;11.43;4.60;;;5.50;99.90;;;;;;5051989;28;20029;-71
2023/01/23 12:22:33;;;;;;;11.85;4.57;;;5.50;99.90;;;;;;5051929;28;20056;-71
2023/01/23 12:25:01;;;;;;;8.50;4.35;;;5.60;99.90;;;;;;5053097;28;20162;-72
2023/01/23 12:27:43;;;;;;;9.38;4.20;;;6.00;99.90;;;;;;5051813;28;20021;-72
2023/01/23 12:30:31;;;;;;;8.30;4.20;;;5.90;99.90;;;;;;5053094;28;20048;-71
2023/01/23 12:33:19;;;;;;;10.25;4.50;;;6.10;99.90;;;;;;5052457;28;20033;-71
2023/01/23 12:35:44;;;;;;;12.45;5.25;;;6.30;99.90;;;;;;5051706;28;20082;-71
2023/01/23 12:38:18;;;;;;;17.42;4.57;;;6.30;99.90;;;;;;5040865;28;20088;-71
2023/01/23 12:40:46;;;;;;;8.23;3.97;;;6.10;99.90;;;;;;5031799;28;20071;-71
2023/01/23 12:43:20;;;;;;;13.45;5.80;;;6.00;99.90;;;;;;5031736;28;20029;-71
2023/01/23 12:45:56;;;;;;;9.25;4.82;;;6.00;99.90;;;;;;5031834;28;20029;-71
2023/01/23 12:48:28;;;;;;;11.40;4.07;;;6.10;99.90;;;;;;5032017;28;20028;-71
2023/01/23 12:51:06;;;;;;;;;;;6.30;99.90;;;;;;5033639;28;20021;-71
2023/01/23 12:53:37;;;;;;;9.85;5.20;;;6.10;99.90;;;;;;5032169;28;19919;-71
2023/01/23 12:56:22;;;;;;;9.25;4.30;;;6.10;99.90;;;;;;5032304;28;20025;-71
2023/01/23 12:59:13;;;;;;;14.75;5.15;;;6.10;99.90;;;;;;5035928;28;20032;-71
2023/01/23 13:02:05;;;;;;;11.63;4.85;;;6.00;99.90;;;;;;5035465;28;20030;-71
2023/01/23 13:04:59;;;;;;;9.98;4.55;;;5.80;99.90;;;;;;5035617;28;20031;-71
2023/01/23 13:07:34;;;;;;;7.35;4.53;;;6.00;99.90;;;;;;5037120;28;20532;-71
2023/01/23 13:10:02;;;;;;;8.50;5.03;;;5.90;99.90;;;;;;5036330;28;20026;-71
2023/01/23 13:12:29;;;;;;;9.35;4.50;;;5.80;99.90;;;;;;5035311;28;20030;-71
2023/01/23 13:15:16;;;;;;;11.38;3.75;;;5.70;99.90;;;;;;5035678;28;20083;-71
2023/01/23 13:17:56;;;;;;;12.48;5.13;;;5.60;99.90;;;;;;5036819;28;20025;-71
2023/01/23 13:23:38;;;;;;;7.70;4.40;;;5.40;99.90;;;;;;5037002;28;20079;-71